Portland, Oregon
Traffic Map
Current Weather Conditions
Portland, Oregon
Broken Clouds
Broken Clouds
48°
Feels Like: 42°
Wind Chill: 42° Ceiling: 3100
Heat Index: 48° Visibility: 10mi
Dew Point: 40° Wind: 15mph
Humidity: 74% Direction: 200° (SSW)
Pressure: 30in Gusts: 0mph
Raw Report DataKPDX 192153Z 20013KT 10SM FEW025 BKN031 BKN095 BKN260 09/04 A3000 RMK AO2 SLP158 T00890044
Traffic Incident Summary
Active as of:
Severity:
Category:
InformationThere was an issue retrieving the traffic information for this location. Please try a different location or try again shortly.
Advertisements